createdAt,value
2023-05-23T00:01:18.521Z,12.30
2023-05-23T00:03:49.516Z,12.20
2023-05-23T00:06:22.382Z,12.20
2023-05-23T00:08:51.726Z,12.10
2023-05-23T00:11:20.578Z,12.00
2023-05-23T00:13:48.808Z,11.90
2023-05-23T00:16:17.331Z,11.90
2023-05-23T00:18:45.836Z,11.90
2023-05-23T00:21:16.136Z,11.80
2023-05-23T00:23:44.900Z,11.80
2023-05-23T00:26:13.338Z,11.70
2023-05-23T00:28:41.698Z,11.70
2023-05-23T00:31:09.943Z,11.70
2023-05-23T00:33:38.492Z,11.60
2023-05-23T00:36:07.448Z,11.60
2023-05-23T00:38:36.994Z,11.50
2023-05-23T00:41:05.721Z,11.40
2023-05-23T00:43:34.085Z,11.40
2023-05-23T00:46:02.500Z,11.30
2023-05-23T00:48:31.177Z,11.20
2023-05-23T00:50:59.542Z,11.20
2023-05-23T00:53:28.631Z,11.10
2023-05-23T00:55:58.282Z,11.00
2023-05-23T00:58:28.733Z,10.90
2023-05-23T01:00:57.075Z,10.80
2023-05-23T01:03:28.775Z,10.70
2023-05-23T01:05:57.439Z,10.70
2023-05-23T01:08:25.686Z,10.60
2023-05-23T01:10:54.383Z,10.60
2023-05-23T01:13:32.781Z,10.50
2023-05-23T01:16:08.847Z,10.40
2023-05-23T01:18:41.510Z,10.40
2023-05-23T01:21:15.368Z,10.40
2023-05-23T01:24:08.222Z,10.30
2023-05-23T01:26:53.560Z,10.30
2023-05-23T01:29:27.843Z,10.20
2023-05-23T01:31:59.358Z,10.20
2023-05-23T01:34:27.737Z,10.20
2023-05-23T01:36:56.678Z,10.10
2023-05-23T01:39:25.786Z,10.10
2023-05-23T01:41:55.285Z,10.00
2023-05-23T01:44:25.171Z,10.00
2023-05-23T01:46:53.555Z,10.00
2023-05-23T01:49:25.208Z,9.90
2023-05-23T01:51:53.565Z,9.80
2023-05-23T01:54:22.032Z,9.80
2023-05-23T01:56:51.232Z,9.70
2023-05-23T01:59:19.630Z,9.70
2023-05-23T02:01:49.561Z,9.70
2023-05-23T02:04:17.850Z,9.70
2023-05-23T02:06:46.703Z,9.70
2023-05-23T02:09:15.398Z,9.70
2023-05-23T02:11:43.567Z,9.70
2023-05-23T02:14:13.032Z,9.70
2023-05-23T02:16:41.424Z,9.60
2023-05-23T02:19:10.999Z,9.70
2023-05-23T02:21:39.631Z,9.70
2023-05-23T02:24:08.222Z,9.60
2023-05-23T02:26:37.104Z,9.70
2023-05-23T02:29:05.400Z,9.60
2023-05-23T02:31:33.919Z,9.70
2023-05-23T02:34:02.143Z,9.80
2023-05-23T02:36:33.466Z,9.80
2023-05-23T02:39:01.968Z,9.80
2023-05-23T02:41:30.211Z,9.80
2023-05-23T02:43:58.639Z,9.80
2023-05-23T02:46:27.105Z,9.80
2023-05-23T02:48:55.439Z,9.90
2023-05-23T02:51:23.848Z,9.90
2023-05-23T02:53:53.649Z,9.90
2023-05-23T02:56:22.778Z,9.80
2023-05-23T02:58:51.016Z,9.90
2023-05-23T03:01:20.074Z,9.90
2023-05-23T03:03:48.475Z,9.90
2023-05-23T03:06:17.010Z,9.90
2023-05-23T03:08:45.517Z,10.00
2023-05-23T03:11:15.088Z,10.00
2023-05-23T03:13:43.330Z,10.10
2023-05-23T03:16:12.564Z,10.20
2023-05-23T03:18:42.077Z,10.30
2023-05-23T03:21:10.560Z,10.40
2023-05-23T03:23:38.872Z,10.40
2023-05-23T03:26:07.844Z,10.50
2023-05-23T03:28:37.375Z,10.60
2023-05-23T03:31:05.910Z,10.70
2023-05-23T03:33:34.277Z,10.70
2023-05-23T03:36:02.436Z,10.70
2023-05-23T03:38:31.021Z,10.80
2023-05-23T03:40:59.212Z,10.90
2023-05-23T03:43:27.334Z,10.90
2023-05-23T03:45:57.231Z,11.00
2023-05-23T03:48:25.478Z,11.00
2023-05-23T03:50:53.686Z,11.10
2023-05-23T03:53:22.137Z,11.10
2023-05-23T03:55:50.297Z,11.20
2023-05-23T03:58:18.550Z,11.20
2023-05-23T04:00:46.816Z,11.20
2023-05-23T04:03:17.695Z,11.20
2023-05-23T04:05:46.290Z,11.20
2023-05-23T04:08:15.821Z,11.20
2023-05-23T04:10:44.009Z,11.20
2023-05-23T04:13:12.174Z,11.10
2023-05-23T04:15:41.438Z,11.20
2023-05-23T04:18:09.809Z,11.10
2023-05-23T04:20:39.392Z,11.20
2023-05-23T04:23:07.831Z,11.20
2023-05-23T04:25:36.069Z,11.20
2023-05-23T04:28:05.364Z,11.20
2023-05-23T04:30:33.824Z,11.30
2023-05-23T04:33:02.079Z,11.30
2023-05-23T04:35:30.254Z,11.30
2023-05-23T04:37:59.995Z,11.30
2023-05-23T04:40:28.268Z,11.40
2023-05-23T04:42:56.901Z,11.40
2023-05-23T04:45:26.667Z,11.50
2023-05-23T04:47:56.555Z,11.50
2023-05-23T04:50:24.894Z,11.60
2023-05-23T04:52:53.275Z,11.80
2023-05-23T04:55:23.061Z,11.90
2023-05-23T04:57:51.520Z,12.10
2023-05-23T05:00:21.100Z,12.10
2023-05-23T05:02:49.397Z,12.20
2023-05-23T05:05:17.864Z,12.30
2023-05-23T05:07:46.198Z,12.40
2023-05-23T05:10:17.095Z,12.40
2023-05-23T05:12:49.750Z,12.40
2023-05-23T05:15:18.509Z,12.40
2023-05-23T05:17:49.774Z,12.40
2023-05-23T05:20:18.640Z,12.50
2023-05-23T05:22:47.631Z,12.60
2023-05-23T05:25:16.093Z,12.70
2023-05-23T05:27:44.732Z,12.80
2023-05-23T05:30:15.388Z,13.00
2023-05-23T05:32:46.409Z,13.20
2023-05-23T05:35:15.218Z,13.40
2023-05-23T05:37:43.485Z,13.60
2023-05-23T05:40:12.229Z,13.80
2023-05-23T05:42:40.554Z,14.10
2023-05-23T05:45:09.418Z,14.30
2023-05-23T05:47:39.508Z,14.60
2023-05-23T05:50:09.559Z,14.90
2023-05-23T05:52:39.773Z,15.20
2023-05-23T05:55:10.482Z,15.50
2023-05-23T05:57:39.355Z,15.80
2023-05-23T06:00:13.735Z,16.10
2023-05-23T06:02:44.211Z,16.30
2023-05-23T06:05:13.374Z,16.60
2023-05-23T06:07:42.214Z,16.90
2023-05-23T06:10:13.141Z,17.10
2023-05-23T06:12:41.754Z,17.30
2023-05-23T06:15:11.144Z,17.30
2023-05-23T06:17:39.353Z,17.20
2023-05-23T06:20:09.877Z,17.30
2023-05-23T06:22:38.503Z,17.30
2023-05-23T06:25:09.003Z,17.40
2023-05-23T06:27:38.148Z,17.40
2023-05-23T06:30:07.453Z,17.60
2023-05-23T06:32:35.860Z,17.60
2023-05-23T06:35:04.250Z,17.70
2023-05-23T06:37:34.632Z,17.90
2023-05-23T06:40:02.933Z,17.90
2023-05-23T06:42:31.249Z,18.00
2023-05-23T06:44:59.544Z,18.20
2023-05-23T06:47:32.855Z,18.50
2023-05-23T06:50:01.230Z,18.50
2023-05-23T06:52:29.448Z,18.50
2023-05-23T06:54:58.967Z,18.50
2023-05-23T06:57:27.350Z,18.80
2023-05-23T06:59:55.615Z,18.80
2023-05-23T07:02:24.076Z,18.90
2023-05-23T07:04:52.555Z,19.00
2023-05-23T07:07:21.060Z,19.00
2023-05-23T07:09:49.198Z,19.20
2023-05-23T07:12:18.927Z,19.50
2023-05-23T07:14:47.207Z,19.50
2023-05-23T07:17:15.799Z,19.50
2023-05-23T07:19:44.148Z,19.70
2023-05-23T07:22:12.446Z,19.80
2023-05-23T07:24:40.763Z,20.00
2023-05-23T07:27:09.113Z,20.30
2023-05-23T07:29:38.743Z,20.50
2023-05-23T07:32:07.506Z,20.80
2023-05-23T07:34:35.897Z,20.80
2023-05-23T07:37:04.265Z,21.30
2023-05-23T07:39:32.510Z,21.70
2023-05-23T07:42:03.742Z,21.60
2023-05-23T07:44:31.951Z,21.80
2023-05-23T07:47:02.045Z,21.90
2023-05-23T07:49:30.311Z,22.00
2023-05-23T07:51:59.237Z,21.70
2023-05-23T07:54:27.502Z,21.50
2023-05-23T07:56:56.072Z,21.60
2023-05-23T07:59:24.475Z,22.00
2023-05-23T08:01:52.895Z,22.10
2023-05-23T08:04:22.864Z,22.00
2023-05-23T08:07:00.975Z,22.00
2023-05-23T08:09:33.314Z,22.20
2023-05-23T08:12:01.562Z,22.30
2023-05-23T08:14:42.286Z,22.40
2023-05-23T08:17:17.964Z,22.50
2023-05-23T08:19:48.003Z,22.30
2023-05-23T08:22:16.447Z,22.00
2023-05-23T08:24:44.823Z,21.70
2023-05-23T08:27:12.967Z,21.90
2023-05-23T08:29:41.353Z,21.90
2023-05-23T08:32:09.833Z,22.20
2023-05-23T08:34:38.002Z,22.40
2023-05-23T08:37:07.859Z,22.30
2023-05-23T08:39:36.389Z,22.10
2023-05-23T08:42:04.860Z,22.00
2023-05-23T08:44:33.183Z,22.00
2023-05-23T08:47:05.958Z,22.30
2023-05-23T08:49:34.449Z,22.70
2023-05-23T08:52:04.358Z,22.90
2023-05-23T08:54:34.700Z,23.20
2023-05-23T08:57:03.731Z,23.10
2023-05-23T08:59:33.190Z,22.80
2023-05-23T09:02:04.640Z,22.80
2023-05-23T09:04:33.048Z,22.60
2023-05-23T09:07:02.487Z,22.50
2023-05-23T09:09:31.317Z,22.60
2023-05-23T09:12:01.202Z,22.70
2023-05-23T09:14:32.017Z,23.50
2023-05-23T09:17:04.606Z,23.60
2023-05-23T09:19:33.596Z,23.20
2023-05-23T09:22:04.437Z,23.40
2023-05-23T09:24:37.018Z,23.30
2023-05-23T09:27:08.500Z,23.20
2023-05-23T09:29:39.778Z,23.20
2023-05-23T09:32:13.501Z,23.40
2023-05-23T09:34:56.272Z,23.20
2023-05-23T09:37:27.235Z,23.30
2023-05-23T09:39:55.535Z,23.40
2023-05-23T09:42:25.339Z,23.20
2023-05-23T09:44:54.972Z,23.10
2023-05-23T09:47:23.264Z,22.90
2023-05-23T09:49:52.209Z,22.90
2023-05-23T09:52:21.417Z,22.70
2023-05-23T09:54:49.873Z,23.10
2023-05-23T09:57:19.838Z,23.90
2023-05-23T09:59:54.620Z,24.30
2023-05-23T10:02:55.138Z,24.10
2023-05-23T10:05:36.930Z,23.80
2023-05-23T10:08:12.077Z,23.90
2023-05-23T10:11:25.046Z,24.10
2023-05-23T10:13:54.370Z,23.70
2023-05-23T10:16:32.716Z,23.70
2023-05-23T10:19:04.518Z,23.90
2023-05-23T10:21:40.035Z,23.90
2023-05-23T10:24:09.378Z,23.90
2023-05-23T10:26:38.003Z,23.70
2023-05-23T10:29:07.759Z,23.10
2023-05-23T10:31:38.167Z,23.00
2023-05-23T10:34:15.284Z,23.20
2023-05-23T10:36:52.656Z,23.10
2023-05-23T10:39:38.387Z,23.00
2023-05-23T10:42:14.081Z,23.00
2023-05-23T10:44:42.428Z,23.00
2023-05-23T10:47:13.072Z,23.10
2023-05-23T10:49:43.398Z,23.10
2023-05-23T10:52:13.552Z,23.20
2023-05-23T10:54:46.103Z,23.10
2023-05-23T10:57:18.462Z,23.10
2023-05-23T10:59:48.039Z,23.30
2023-05-23T11:02:20.189Z,23.70
2023-05-23T11:05:08.831Z,23.50
2023-05-23T11:07:38.096Z,23.40
2023-05-23T11:10:11.292Z,23.50
2023-05-23T11:12:41.344Z,24.20
2023-05-23T11:15:22.618Z,24.80
2023-05-23T11:17:54.790Z,24.10
2023-05-23T11:20:27.766Z,23.50
2023-05-23T11:22:59.881Z,23.80
2023-05-23T11:25:43.196Z,24.40
2023-05-23T11:28:11.997Z,24.60
2023-05-23T11:30:40.948Z,25.00
2023-05-23T11:33:13.825Z,25.60
2023-05-23T11:35:42.988Z,26.00
2023-05-23T11:38:12.173Z,26.30
2023-05-23T11:40:42.772Z,26.20
2023-05-23T11:43:12.168Z,25.90
2023-05-23T11:45:41.799Z,25.80
2023-05-23T11:48:13.061Z,25.40
2023-05-23T11:50:48.924Z,25.30
2023-05-23T11:53:20.712Z,25.50
2023-05-23T11:55:54.432Z,25.20
2023-05-23T11:58:23.891Z,25.40
2023-05-23T12:00:55.072Z,25.40
2023-05-23T12:03:25.200Z,25.50
2023-05-23T12:05:53.639Z,25.60
2023-05-23T12:08:21.957Z,25.90
2023-05-23T12:10:54.764Z,25.70
2023-05-23T12:13:26.288Z,25.00
2023-05-23T12:15:58.704Z,24.80
2023-05-23T12:18:30.900Z,24.10
2023-05-23T12:21:03.380Z,23.80
2023-05-23T12:23:34.763Z,23.20
2023-05-23T12:26:07.199Z,23.50
2023-05-23T12:28:40.209Z,23.70
2023-05-23T12:31:17.767Z,23.90
2023-05-23T12:33:50.045Z,24.10
2023-05-23T12:36:23.841Z,24.50
2023-05-23T12:38:52.245Z,24.30
2023-05-23T12:41:22.062Z,24.20
2023-05-23T12:43:51.888Z,23.90
2023-05-23T12:46:20.096Z,24.60
2023-05-23T12:48:49.767Z,24.30
2023-05-23T12:51:18.374Z,24.50
2023-05-23T12:53:46.715Z,24.40
2023-05-23T12:56:14.991Z,24.00
2023-05-23T12:58:43.720Z,23.70
2023-05-23T13:01:12.278Z,23.80
2023-05-23T13:03:40.794Z,23.40
2023-05-23T13:06:10.618Z,23.20
2023-05-23T13:08:39.149Z,23.00
2023-05-23T13:11:07.451Z,22.70
2023-05-23T13:13:35.883Z,22.40
2023-05-23T13:16:04.222Z,22.30
2023-05-23T13:18:32.458Z,22.50
2023-05-23T13:21:00.786Z,22.50
2023-05-23T13:23:30.909Z,22.50
2023-05-23T13:25:59.223Z,22.50
2023-05-23T13:28:27.667Z,22.70
2023-05-23T13:30:56.162Z,22.60
2023-05-23T13:33:24.636Z,22.60
2023-05-23T13:35:54.456Z,22.90
2023-05-23T13:38:24.717Z,23.00
2023-05-23T13:40:56.053Z,22.80
2023-05-23T13:43:24.386Z,22.80
2023-05-23T13:45:52.752Z,23.50
2023-05-23T13:48:21.310Z,24.20
2023-05-23T13:50:49.532Z,24.30
2023-05-23T13:53:17.914Z,24.20
2023-05-23T13:55:46.660Z,24.20
2023-05-23T13:58:16.262Z,24.30
2023-05-23T14:00:44.508Z,24.20
2023-05-23T14:03:13.208Z,24.30
2023-05-23T14:05:41.651Z,24.40
2023-05-23T14:08:11.332Z,23.90
2023-05-23T14:10:39.643Z,23.80
2023-05-23T14:13:08.257Z,24.00
2023-05-23T14:15:38.637Z,24.20
2023-05-23T14:18:07.753Z,24.10
2023-05-23T14:20:36.478Z,23.90
2023-05-23T14:23:04.776Z,24.10
2023-05-23T14:25:33.260Z,23.50
2023-05-23T14:28:01.571Z,22.90
2023-05-23T14:30:29.791Z,22.90
2023-05-23T14:32:59.682Z,23.10
2023-05-23T14:35:29.632Z,22.80
2023-05-23T14:37:57.857Z,22.40
2023-05-23T14:40:26.390Z,22.30
2023-05-23T14:42:54.578Z,22.10
2023-05-23T14:45:23.253Z,22.20
2023-05-23T14:47:51.710Z,22.10
2023-05-23T14:50:21.426Z,22.30
2023-05-23T14:52:49.716Z,22.40
2023-05-23T14:55:18.044Z,22.60
2023-05-23T14:57:46.400Z,22.90
2023-05-23T15:00:15.654Z,22.80
2023-05-23T15:02:44.031Z,22.60
2023-05-23T15:05:12.608Z,22.70
2023-05-23T15:07:42.298Z,22.50
2023-05-23T15:10:10.998Z,22.30
2023-05-23T15:12:39.426Z,22.00
2023-05-23T15:15:08.612Z,21.60
2023-05-23T15:17:37.123Z,21.60
2023-05-23T15:20:07.268Z,21.40
2023-05-23T15:22:39.811Z,21.10
2023-05-23T15:25:11.332Z,21.20
2023-05-23T15:27:39.510Z,21.30
2023-05-23T15:30:09.227Z,21.10
2023-05-23T15:32:37.567Z,20.90
2023-05-23T15:35:06.891Z,21.20
2023-05-23T15:37:35.197Z,21.50
2023-05-23T15:40:04.158Z,21.50
2023-05-23T15:42:33.785Z,21.50
2023-05-23T15:45:02.120Z,21.30
2023-05-23T15:47:30.615Z,21.10
2023-05-23T15:49:58.957Z,20.90
2023-05-23T15:52:27.338Z,20.90
2023-05-23T15:54:57.171Z,20.80
2023-05-23T15:57:25.537Z,20.80
2023-05-23T15:59:55.180Z,20.80
2023-05-23T16:02:23.809Z,20.70
2023-05-23T16:04:52.148Z,20.60
2023-05-23T16:07:20.461Z,20.50
2023-05-23T16:09:48.749Z,20.60
2023-05-23T16:12:17.031Z,20.80
2023-05-23T16:14:45.297Z,20.90
2023-05-23T16:17:15.010Z,21.20
2023-05-23T16:19:43.302Z,21.30
2023-05-23T16:22:11.576Z,21.50
2023-05-23T16:24:40.002Z,21.30
2023-05-23T16:27:08.274Z,21.30
2023-05-23T16:29:36.660Z,21.40
2023-05-23T16:32:05.369Z,21.40
2023-05-23T16:34:35.299Z,21.40
2023-05-23T16:37:03.757Z,21.40
2023-05-23T16:39:32.187Z,21.40
2023-05-23T16:42:00.677Z,21.50
2023-05-23T16:44:29.059Z,21.60
2023-05-23T16:46:57.504Z,21.70
2023-05-23T16:49:25.909Z,21.60
2023-05-23T16:51:55.667Z,21.60
2023-05-23T16:54:24.016Z,21.60
2023-05-23T16:56:52.287Z,21.50
2023-05-23T16:59:20.559Z,21.30
2023-05-23T17:01:48.997Z,21.20
2023-05-23T17:04:20.284Z,21.30
2023-05-23T17:06:48.745Z,21.20
2023-05-23T17:09:18.608Z,21.10
2023-05-23T17:11:46.780Z,21.00
2023-05-23T17:14:15.288Z,20.90
2023-05-23T17:16:43.649Z,20.90
2023-05-23T17:19:11.972Z,20.80
2023-05-23T17:21:40.355Z,20.70
2023-05-23T17:24:09.097Z,20.60
2023-05-23T17:26:38.635Z,20.40
2023-05-23T17:29:07.167Z,20.20
2023-05-23T17:31:35.543Z,20.10
2023-05-23T17:34:03.766Z,20.00
2023-05-23T17:36:32.407Z,19.90
2023-05-23T17:39:00.836Z,19.70
2023-05-23T17:41:29.075Z,19.70
2023-05-23T17:43:58.924Z,19.60
2023-05-23T17:46:27.464Z,19.50
2023-05-23T17:48:55.753Z,19.50
2023-05-23T17:51:23.972Z,19.40
2023-05-23T17:53:53.909Z,19.40
2023-05-23T17:56:23.476Z,19.20
2023-05-23T17:58:52.714Z,19.10
2023-05-23T18:01:22.747Z,19.00
2023-05-23T18:03:51.048Z,18.90
2023-05-23T18:06:19.423Z,18.80
2023-05-23T18:08:48.079Z,18.70
2023-05-23T18:11:16.244Z,18.70
2023-05-23T18:13:44.514Z,18.70
2023-05-23T18:16:12.829Z,18.60
2023-05-23T18:18:42.658Z,18.40
2023-05-23T18:21:11.209Z,18.30
2023-05-23T18:23:39.732Z,18.10
2023-05-23T18:26:08.003Z,18.00
2023-05-23T18:28:36.337Z,17.80
2023-05-23T18:31:05.032Z,17.70
2023-05-23T18:33:33.274Z,17.60
2023-05-23T18:36:03.206Z,17.50
2023-05-23T18:38:31.641Z,17.40
2023-05-23T18:40:59.874Z,17.30
2023-05-23T18:43:28.278Z,17.10
2023-05-23T18:45:56.629Z,17.00
2023-05-23T18:48:24.847Z,17.00
2023-05-23T18:50:53.098Z,16.90
2023-05-23T18:53:22.683Z,16.80
2023-05-23T18:55:50.918Z,16.70
2023-05-23T18:58:19.631Z,16.60
2023-05-23T19:00:47.971Z,16.50
2023-05-23T19:03:17.696Z,16.40
2023-05-23T19:05:46.337Z,16.30
2023-05-23T19:08:14.596Z,16.20
2023-05-23T19:10:44.386Z,16.10
2023-05-23T19:13:13.873Z,16.00
2023-05-23T19:15:42.366Z,15.80
2023-05-23T19:18:10.727Z,15.70
2023-05-23T19:20:40.097Z,15.60
2023-05-23T19:23:08.822Z,15.40
2023-05-23T19:25:37.455Z,15.40
2023-05-23T19:28:07.667Z,15.30
2023-05-23T19:30:36.085Z,15.20
2023-05-23T19:33:04.316Z,15.00
2023-05-23T19:35:32.816Z,14.90
2023-05-23T19:38:02.103Z,14.90
2023-05-23T19:40:30.430Z,14.80
2023-05-23T19:42:58.851Z,14.70
2023-05-23T19:45:29.075Z,14.60
2023-05-23T19:47:58.878Z,14.50
2023-05-23T19:50:27.168Z,14.30
2023-05-23T19:52:55.466Z,14.20
2023-05-23T19:55:23.833Z,14.20
2023-05-23T19:57:52.621Z,14.10
2023-05-23T20:00:21.081Z,14.00
2023-05-23T20:02:50.931Z,13.90
2023-05-23T20:05:19.801Z,13.80
2023-05-23T20:07:48.234Z,13.70
2023-05-23T20:10:16.655Z,13.60
2023-05-23T20:12:44.907Z,13.50
2023-05-23T20:15:15.869Z,13.40
2023-05-23T20:17:46.079Z,13.30
2023-05-23T20:20:16.113Z,13.20
2023-05-23T20:22:44.296Z,13.10
2023-05-23T20:25:12.608Z,13.10
2023-05-23T20:27:42.263Z,13.00
2023-05-23T20:30:11.784Z,12.90
2023-05-23T20:32:41.584Z,12.80
2023-05-23T20:35:10.298Z,12.80
2023-05-23T20:37:40.315Z,12.70
2023-05-23T20:40:09.985Z,12.70
2023-05-23T20:42:38.339Z,12.60
2023-05-23T20:45:09.463Z,12.50
2023-05-23T20:47:41.843Z,12.50
2023-05-23T20:50:11.086Z,12.40
2023-05-23T20:52:42.962Z,12.40
2023-05-23T20:55:11.894Z,12.40
2023-05-23T20:57:40.449Z,12.30
2023-05-23T21:00:13.080Z,12.20
2023-05-23T21:02:42.629Z,12.20
2023-05-23T21:05:12.821Z,12.10
2023-05-23T21:07:42.666Z,12.00
2023-05-23T21:10:11.255Z,11.90
2023-05-23T21:12:39.563Z,11.80
2023-05-23T21:15:10.005Z,11.80
2023-05-23T21:17:38.746Z,11.70
2023-05-23T21:20:08.028Z,11.60
2023-05-23T21:22:36.471Z,11.50
2023-05-23T21:25:06.789Z,11.50
2023-05-23T21:27:35.344Z,11.40
2023-05-23T21:30:03.828Z,11.40
2023-05-23T21:32:32.061Z,11.30
2023-05-23T21:35:00.551Z,11.30
2023-05-23T21:37:29.133Z,11.20
2023-05-23T21:39:57.246Z,11.20
2023-05-23T21:42:27.315Z,11.10
2023-05-23T21:44:55.644Z,11.10
2023-05-23T21:47:25.077Z,11.00
2023-05-23T21:49:53.570Z,10.90
2023-05-23T21:52:22.703Z,10.90
2023-05-23T21:54:51.675Z,10.80
2023-05-23T21:57:19.994Z,10.70
2023-05-23T21:59:49.743Z,10.60
2023-05-23T22:02:18.271Z,10.60
2023-05-23T22:04:46.863Z,10.50
2023-05-23T22:07:15.267Z,10.50
2023-05-23T22:09:43.648Z,10.40
2023-05-23T22:12:12.030Z,10.40
2023-05-23T22:14:40.305Z,10.40
2023-05-23T22:17:10.058Z,10.40
2023-05-23T22:19:38.330Z,10.30
2023-05-23T22:22:07.983Z,10.20
2023-05-23T22:24:36.376Z,10.20
2023-05-23T22:27:05.055Z,10.10
2023-05-23T22:29:33.492Z,10.10
2023-05-23T22:32:01.757Z,10.00
2023-05-23T22:34:31.420Z,10.00
2023-05-23T22:37:00.442Z,9.90
2023-05-23T22:39:29.063Z,9.90
2023-05-23T22:41:57.280Z,9.80
2023-05-23T22:44:26.476Z,9.80
2023-05-23T22:46:55.352Z,9.70
2023-05-23T22:49:25.315Z,9.70
2023-05-23T22:51:55.279Z,9.60
2023-05-23T22:54:23.471Z,9.60
2023-05-23T22:56:51.719Z,9.50
2023-05-23T22:59:20.305Z,9.50
2023-05-23T23:01:48.531Z,9.40
2023-05-23T23:04:16.761Z,9.40
2023-05-23T23:06:45.114Z,9.40
2023-05-23T23:09:14.626Z,9.30
2023-05-23T23:11:42.998Z,9.30
2023-05-23T23:14:11.414Z,9.20
2023-05-23T23:16:39.673Z,9.20
2023-05-23T23:19:07.956Z,9.20
2023-05-23T23:21:37.786Z,9.20
2023-05-23T23:24:06.350Z,9.10
2023-05-23T23:26:35.948Z,9.10
2023-05-23T23:29:04.446Z,9.10
2023-05-23T23:31:32.852Z,9.10
2023-05-23T23:34:01.105Z,9.10
2023-05-23T23:36:29.611Z,9.00
2023-05-23T23:38:57.920Z,9.00
2023-05-23T23:41:26.990Z,9.00
2023-05-23T23:43:56.675Z,8.90
2023-05-23T23:46:25.086Z,8.90
2023-05-23T23:48:53.427Z,9.10
2023-05-23T23:51:22.273Z,9.10
2023-05-23T23:53:53.184Z,9.10
2023-05-23T23:56:22.780Z,9.10
2023-05-23T23:58:50.988Z,9.00
